Local

EHAM

EHAM 220955Z 07008KT 040V100 CAVOK 20/08 Q1009 NOSIG

EHAM

TAF TAF EHAM 220441Z 2206/2312 06007KT CAVOK BECMG 2206/2209 11010KT TEMPO 2211/2221 11013G23KT TEMPO 2308/2312 10015G25KT

METAR Cross-country

EHKD

EHKD 220955Z AUTO 10008KT 060V140 9999 BKN320 18/08 Q1010 BLU 07006 CAVOK

EHGG

EHGG 220955Z AUTO 12009KT 060V170 9999 NCD 21/04 Q1012 NOSIG

EDLW

EHLW 220955Z AUTO 10013KT 040V170 9999 NCD 20/06 Q1011 BLU

EDDW

EDDW 220950Z 10013KT 070V140 CAVOK 19/03 Q1015 NOSIG

EHRD

EHRD 220955Z AUTO 10008KT 050V150 9999 NSC 21/09 Q1009 NOSIG

EHDL

EHDL 220955Z AUTO 11009KT 050V190 9999 OVC240 22/03 Q1010 BLU

EHEH

EHEH 220955Z AUTO 11009KT 060V140 9999 NCD 23/03 Q1009 BLU 11009KT CAVOK

EBAW

EBAW 220950Z 12009KT 090V150 CAVOK 22/05 Q1008 NOSIG

EHBK

EHBK 220955Z AUTO 07009KT 040V110 9999 NCD 22/04 Q1009 NOSIG

TAF Cross-country

EHKD

TAF TAF EHKD 220823Z 2209/2221 10008KT CAVOK BECMG 2209/2211 11010G20KT BECMG 2215/2218 10015G25KT

EHGG

TAF EHGG 220449Z 2206/2312 08007KT CAVOK BECMG 2208/2210 11013KT TEMPO 2211/2217 11016G26KT BECMG 2307/2310 11018G30KT

EDDW

TAF EDDW 220500Z 2206/2306 10010KT CAVOK TEMPO 2210/2219 10015G25KT TEMPO 2304/2306 09015G25KT

EHRD

TAF EHRD 220441Z 2206/2312 05004KT CAVOK BECMG 2207/2209 10010KT TEMPO 2211/2221 11013G23KT TEMPO 2308/2312 10015G25KT

EHEH

TAF TAF EHEH 220501Z 2206/2312 11005KT CAVOK BECMG 2208/2210 11012G22KT BECMG 2217/2219 08010KT BECMG 2306/2308 09010G20KT

EHBK

TAF EHBK 220450Z 2206/2312 10007KT CAVOK BECMG 2208/2211 11012G22KT BECMG 2217/2220 09012KT BECMG 2306/2308 09015G25KT

Weerbulletin KNMI

Gebruik deze link voor hoogtewinden en omschrijving weersituatie voor de kleine luchtvaart.

Weerminima

Gebruik deze link voor onze weerminima bij lokale- en overland (Dual en Solo) lesvluchten.

Meest voorkomende afkortingen

code vb uitleg
ddtttt 211525 De dag van de maand met de tijd in UTC
zicht 4000 Zicht op 10 meter hoogte 4000 meter
FG Mist (zicht tussen 0-1000 meter)
BR Nevel (zicht tussen 1000-5000 meter)
DZ Motregen
OVC OVC020 Overcast bewolking (8/8 bedekking) 2000 ft
BKN BKN015 Broken bewolking (5/8-7/8 bedekking) 1500 ft
SCT SCT005 Scattered bewolking(3/8-4/8 bedekking) 500 ft
FEW FEW003 Few bewolking (1/8-2/8 bedekking) 300 ft
CAVOK Clouds And Visibility OKay Zicht meer dan 10 km, Geen CB/TCU’s in de buurt, wolkenbasis hoger dan 5000 ft en geen significant weer.
T/D 08/05 Temperatuur/Dauwpunt
QNH QNH1001 Luchtdruk op zeeniveau van 1001 hPa
RA -RA Matige Regen (+ = zwaar en – = matig)

Verwachte regenval vandaag

6 UTC

12 UTC

18 UTC

Disclaimer: Deze tool helpt bij een veilige vluchtuitvoering en de Pilot In Command blijft verantwoordelijk voor gebruik van de originele en meest actuele bronnen. Refresh deze pagina voor het meest actuele weer.